Time;durP1;ratioP1;P1;durP2;ratioP2;P2;SDS_P1;SDS_P2;PMS_P1;PMS_P2;Temp;Humidity;BMP_temperature;BMP_pressure;BME280_temperature;BME280_humidity;BME280_pressure;Samples;Min_cycle;Max_cycle;Signal;HPM_P1;HPM_P2
2021/10/06 00:02:09;;;;;;;17.58;2.10;;;16.00;86.60;;;;;;5020739;28;20136;-60
2021/10/06 00:04:35;;;;;;;11.43;2.00;;;16.00;86.70;;;;;;5020775;28;20053;-60
2021/10/06 00:07:00;;;;;;;11.52;2.30;;;16.00;86.60;;;;;;5004074;28;20048;-59
2021/10/06 00:09:26;;;;;;;10.70;1.30;;;15.90;86.60;;;;;;5021866;28;21325;-60
2021/10/06 00:11:52;;;;;;;10.88;1.88;;;15.90;86.60;;;;;;5020306;28;20095;-60
2021/10/06 00:14:17;;;;;;;10.50;2.08;;;16.00;86.60;;;;;;5019091;28;20431;-60
2021/10/06 00:16:43;;;;;;;7.80;1.88;;;15.90;86.60;;;;;;5003144;28;20048;-60
2021/10/06 00:19:08;;;;;;;13.50;2.05;;;16.00;86.70;;;;;;5019741;28;20029;-60
2021/10/06 00:21:34;;;;;;;10.65;1.80;;;15.90;86.50;;;;;;5004978;28;20047;-60
2021/10/06 00:23:59;;;;;;;11.80;2.50;;;15.90;86.40;;;;;;5003752;28;20033;-60
2021/10/06 00:26:25;;;;;;;7.78;1.92;;;15.90;86.50;;;;;;5017685;28;20063;-60
2021/10/06 00:28:50;;;;;;;11.15;1.95;;;15.80;86.60;;;;;;5017434;28;20485;-61
2021/10/06 00:31:16;;;;;;;10.75;2.08;;;15.80;86.60;;;;;;5003393;28;20064;-60
2021/10/06 00:33:42;;;;;;;6.80;2.08;;;15.80;86.70;;;;;;4986481;28;20029;-60
2021/10/06 00:36:08;;;;;;;10.45;1.92;;;15.80;86.80;;;;;;5019550;28;20034;-60
2021/10/06 00:38:34;;;;;;;7.45;2.05;;;15.80;86.80;;;;;;5001864;28;20022;-60
2021/10/06 00:41:00;;;;;;;7.63;2.30;;;15.70;86.90;;;;;;5020064;28;20025;-60
2021/10/06 00:43:25;;;;;;;8.45;2.28;;;15.70;86.90;;;;;;5020768;28;20053;-60
2021/10/06 00:45:51;;;;;;;5.20;1.90;;;15.70;86.90;;;;;;5019736;28;20208;-60
2021/10/06 00:48:16;;;;;;;9.07;2.10;;;15.70;86.80;;;;;;5022478;28;20052;-60
2021/10/06 00:50:42;;;;;;;8.70;2.30;;;15.70;86.90;;;;;;5004497;28;20095;-60
2021/10/06 00:53:07;;;;;;;16.15;2.47;;;15.70;86.90;;;;;;5019339;28;20440;-60
2021/10/06 00:55:33;;;;;;;9.77;2.83;;;15.70;87.00;;;;;;5001233;28;20068;-60
2021/10/06 00:57:59;;;;;;;9.85;2.45;;;15.70;87.00;;;;;;5016574;28;20115;-60
2021/10/06 01:00:24;;;;;;;9.45;2.30;;;15.60;87.00;;;;;;5021989;28;20065;-60
2021/10/06 01:02:50;;;;;;;8.57;2.08;;;15.60;87.00;;;;;;5021817;28;20025;-60
2021/10/06 01:05:15;;;;;;;6.38;2.28;;;15.60;87.00;;;;;;5020781;28;20437;-61
2021/10/06 01:07:41;;;;;;;7.05;2.17;;;15.60;87.10;;;;;;5019407;28;20103;-60
2021/10/06 01:10:08;;;;;;;5.68;2.00;;;15.60;87.10;;;;;;5020099;28;20072;-60
2021/10/06 01:12:34;;;;;;;4.30;1.98;;;15.60;87.00;;;;;;5002083;28;20033;-59
2021/10/06 01:14:59;;;;;;;7.18;2.28;;;15.60;87.10;;;;;;5020247;28;20034;-60
2021/10/06 01:17:25;;;;;;;6.53;2.03;;;15.60;87.10;;;;;;5017682;28;20441;-60
2021/10/06 01:19:50;;;;;;;6.40;1.58;;;15.60;87.10;;;;;;5019263;28;20256;-60
2021/10/06 01:22:16;;;;;;;5.00;1.77;;;15.60;87.10;;;;;;5014025;28;20067;-60
2021/10/06 01:24:41;;;;;;;8.38;2.03;;;15.40;86.90;;;;;;5016531;28;21150;-60
2021/10/06 01:27:07;;;;;;;9.65;1.98;;;15.50;87.00;;;;;;5013999;28;20080;-60
2021/10/06 01:29:32;;;;;;;5.03;1.98;;;15.50;87.10;;;;;;5021212;28;20141;-60
2021/10/06 01:31:58;;;;;;;5.68;1.80;;;15.50;87.10;;;;;;5019629;28;20038;-60
2021/10/06 01:34:24;;;;;;;2.67;1.58;;;15.50;87.10;;;;;;5019085;28;20029;-60
2021/10/06 01:36:51;;;;;;;5.70;1.85;;;15.50;87.10;;;;;;5017824;28;20048;-60
2021/10/06 01:39:17;;;;;;;5.07;1.77;;;15.50;87.10;;;;;;5015040;28;20559;-60
2021/10/06 01:41:43;;;;;;;4.85;1.50;;;15.40;87.10;;;;;;5020394;28;20037;-60
2021/10/06 01:44:14;;;;;;;3.97;1.73;;;15.40;87.20;;;;;;5018256;28;20022;-60
2021/10/06 01:46:40;;;;;;;3.78;1.38;;;15.40;87.20;;;;;;5016818;28;20448;-60
2021/10/06 01:49:06;;;;;;;3.97;1.27;;;15.40;87.20;;;;;;4985715;28;20091;-60
2021/10/06 01:51:32;;;;;;;4.47;1.50;;;15.40;87.20;;;;;;5018223;28;20026;-60
2021/10/06 01:53:57;;;;;;;3.38;1.55;;;15.40;87.30;;;;;;5021829;28;20037;-60
2021/10/06 01:56:22;;;;;;;3.45;1.30;;;15.40;87.30;;;;;;5020563;28;20083;-60
2021/10/06 01:58:49;;;;;;;3.72;1.42;;;15.40;87.30;;;;;;5021298;28;20123;-60
2021/10/06 02:01:15;;;;;;;3.67;1.52;;;15.40;87.30;;;;;;5020977;28;20041;-60
2021/10/06 02:03:41;;;;;;;4.18;1.50;;;15.30;87.20;;;;;;5018527;28;20484;-60
2021/10/06 02:06:07;;;;;;;5.45;1.48;;;15.30;87.20;;;;;;5022870;28;20021;-60
2021/10/06 02:08:32;;;;;;;4.13;1.60;;;15.30;87.20;;;;;;5021790;28;20361;-60
2021/10/06 02:10:58;;;;;;;4.40;1.30;;;15.30;87.30;;;;;;5024414;28;20166;-60
2021/10/06 02:13:23;;;;;;;4.07;1.77;;;15.30;87.30;;;;;;5017183;28;20037;-60
2021/10/06 02:15:49;;;;;;;2.40;1.30;;;15.30;87.30;;;;;;5010297;28;20506;-60
2021/10/06 02:18:15;;;;;;;5.22;1.20;;;15.20;87.30;;;;;;5020199;28;20073;-60
2021/10/06 02:20:40;;;;;;;3.03;1.40;;;15.20;87.40;;;;;;5020440;28;20025;-60
2021/10/06 02:23:06;;;;;;;4.30;1.33;;;15.20;87.40;;;;;;5020587;28;20030;-60
2021/10/06 02:25:31;;;;;;;3.00;1.65;;;15.20;87.50;;;;;;5002082;28;20064;-60
2021/10/06 02:27:57;;;;;;;7.60;2.05;;;15.20;87.40;;;;;;5018811;28;20421;-61
2021/10/06 02:30:22;;;;;;;3.47;1.77;;;15.20;87.40;;;;;;5020724;28;20446;-60
2021/10/06 02:32:48;;;;;;;3.30;1.92;;;15.20;87.30;;;;;;5022132;28;20043;-60
2021/10/06 02:35:13;;;;;;;3.05;1.67;;;15.20;87.30;;;;;;5022285;28;20152;-60
2021/10/06 02:37:40;;;;;;;5.13;1.80;;;15.20;87.40;;;;;;5020147;28;20119;-60
2021/10/06 02:40:06;;;;;;;6.45;1.60;;;15.20;87.30;;;;;;5020278;28;20091;-60
2021/10/06 02:42:32;;;;;;;3.50;1.65;;;15.20;87.20;;;;;;5005428;28;20029;-59
2021/10/06 02:44:57;;;;;;;5.47;2.38;;;15.20;86.90;;;;;;5023821;28;20049;-60
2021/10/06 02:47:23;;;;;;;3.83;2.00;;;15.20;86.80;;;;;;5022529;28;20025;-61
2021/10/06 02:49:49;;;;;;;5.20;1.42;;;15.10;86.70;;;;;;5002349;28;20060;-60
2021/10/06 02:52:14;;;;;;;4.88;2.00;;;15.10;86.70;;;;;;5022532;28;20121;-60
2021/10/06 02:54:40;;;;;;;3.72;1.60;;;15.10;86.70;;;;;;5016861;28;20524;-60
2021/10/06 02:57:05;;;;;;;4.88;1.60;;;15.10;86.80;;;;;;5021351;28;20037;-60
2021/10/06 02:59:31;;;;;;;3.08;1.63;;;15.10;86.80;;;;;;5021225;28;20022;-60
2021/10/06 03:01:57;;;;;;;4.15;1.52;;;15.00;86.70;;;;;;5020336;28;20063;-61
2021/10/06 03:04:23;;;;;;;5.47;1.38;;;15.00;86.70;;;;;;5016147;28;20048;-60
2021/10/06 03:06:48;;;;;;;8.25;1.75;;;15.00;86.80;;;;;;5019616;28;20136;-60
2021/10/06 03:09:14;;;;;;;2.42;1.25;;;15.00;86.80;;;;;;5020272;28;20128;-60
2021/10/06 03:11:39;;;;;;;1.77;1.00;;;15.00;86.80;;;;;;5022193;28;20029;-60
2021/10/06 03:14:05;;;;;;;3.17;1.23;;;15.00;86.80;;;;;;5021467;28;20053;-60
2021/10/06 03:16:30;;;;;;;3.30;1.35;;;15.00;86.90;;;;;;5020003;28;20405;-60
2021/10/06 03:18:56;;;;;;;2.33;1.10;;;15.00;86.80;;;;;;5020065;28;20076;-60
2021/10/06 03:21:21;;;;;;;3.92;1.35;;;14.90;86.70;;;;;;5021541;28;20523;-60
2021/10/06 03:23:47;;;;;;;3.05;1.55;;;14.90;86.70;;;;;;5022001;28;20043;-60
2021/10/06 03:26:12;;;;;;;3.03;1.38;;;14.90;86.70;;;;;;5018486;28;20041;-60
2021/10/06 03:28:38;;;;;;;3.05;1.40;;;14.90;86.70;;;;;;5019675;28;20038;-60
2021/10/06 03:31:04;;;;;;;3.88;1.08;;;14.90;86.60;;;;;;5014923;28;20060;-60
2021/10/06 03:33:29;;;;;;;2.63;1.10;;;14.90;86.70;;;;;;5019706;28;20560;-61
2021/10/06 03:35:55;;;;;;;1.63;1.00;;;14.90;86.70;;;;;;5018064;28;21406;-61
2021/10/06 03:38:20;;;;;;;3.33;1.00;;;14.90;86.30;;;;;;5018911;28;20600;-60
2021/10/06 03:40:46;;;;;;;1.95;1.00;;;14.90;87.00;;;;;;5022059;28;20507;-60
2021/10/06 03:43:11;;;;;;;2.00;1.10;;;14.90;86.40;;;;;;5020810;28;20029;-60
2021/10/06 03:45:37;;;;;;;3.75;1.25;;;14.90;86.30;;;;;;5018812;28;20028;-60
2021/10/06 03:48:02;;;;;;;2.63;0.90;;;14.90;86.40;;;;;;5021739;28;20029;-60
2021/10/06 03:50:28;;;;;;;3.20;0.95;;;14.90;86.30;;;;;;5019689;28;20030;-59
2021/10/06 03:52:53;;;;;;;7.60;1.63;;;14.80;86.20;;;;;;5017844;28;20127;-60
2021/10/06 03:55:19;;;;;;;5.45;1.13;;;14.80;86.10;;;;;;5022078;28;20485;-60
2021/10/06 03:57:45;;;;;;;4.22;0.90;;;14.80;86.00;;;;;;5019565;28;20017;-60
2021/10/06 04:00:11;;;;;;;4.05;1.00;;;14.80;86.20;;;;;;5018694;28;20124;-60
2021/10/06 04:02:36;;;;;;;3.42;1.10;;;14.80;86.00;;;;;;5004697;28;20026;-60
2021/10/06 04:05:02;;;;;;;3.05;1.10;;;14.80;86.00;;;;;;5017875;28;20542;-60
2021/10/06 04:07:27;;;;;;;3.17;1.25;;;14.80;86.00;;;;;;5018504;28;20516;-60
2021/10/06 04:09:53;;;;;;;7.07;1.10;;;14.80;85.90;;;;;;5003782;28;20073;-60
2021/10/06 04:12:18;;;;;;;5.90;1.00;;;14.70;85.80;;;;;;4997745;28;21009;-60
2021/10/06 04:14:44;;;;;;;8.25;1.30;;;14.80;85.90;;;;;;5016652;28;20415;-60
2021/10/06 04:17:09;;;;;;;3.22;1.48;;;14.80;85.80;;;;;;5017183;28;20354;-60
2021/10/06 04:19:35;;;;;;;8.15;1.17;;;14.50;85.60;;;;;;5016511;28;20053;-60
2021/10/06 04:22:00;;;;;;;7.93;1.10;;;14.70;85.70;;;;;;5015903;28;20474;-60
2021/10/06 04:24:26;;;;;;;2.92;0.85;;;14.70;85.60;;;;;;5015629;28;20386;-60
2021/10/06 04:26:51;;;;;;;3.10;0.85;;;14.70;85.70;;;;;;5017539;28;20057;-60
2021/10/06 04:29:17;;;;;;;4.43;1.13;;;14.70;85.70;;;;;;5017212;28;20036;-60
2021/10/06 04:31:42;;;;;;;5.55;1.50;;;14.60;85.40;;;;;;5017638;28;20033;-60
2021/10/06 04:34:08;;;;;;;3.53;1.00;;;14.60;85.40;;;;;;5016950;28;20106;-60
2021/10/06 04:36:34;;;;;;;3.53;0.95;;;14.60;85.40;;;;;;5013730;28;20057;-60
2021/10/06 04:38:59;;;;;;;3.80;1.10;;;14.60;85.40;;;;;;5013409;28;20191;-60
2021/10/06 04:41:25;;;;;;;2.22;0.88;;;14.60;85.30;;;;;;5017886;28;20025;-61
2021/10/06 04:43:50;;;;;;;2.90;0.90;;;14.60;85.40;;;;;;5000028;28;20713;-60
2021/10/06 04:46:18;;;;;;;4.55;0.90;;;14.60;85.40;;;;;;5016096;28;20049;-60
2021/10/06 04:48:45;;;;;;;4.47;0.82;;;14.50;85.40;;;;;;5014271;28;20025;-60
2021/10/06 04:51:10;;;;;;;1.70;0.90;;;14.50;85.30;;;;;;5016569;28;20068;-60
2021/10/06 04:53:36;;;;;;;2.25;0.80;;;14.50;85.30;;;;;;5014664;28;20720;-60
2021/10/06 04:56:01;;;;;;;1.55;0.70;;;14.50;85.40;;;;;;5017530;28;20623;-60
2021/10/06 04:58:27;;;;;;;2.55;0.70;;;14.50;85.30;;;;;;5014193;28;20045;-60
2021/10/06 05:00:52;;;;;;;1.48;0.75;;;14.40;85.30;;;;;;5016074;28;20034;-60
2021/10/06 05:03:18;;;;;;;1.85;0.65;;;14.50;85.10;;;;;;5015682;28;20052;-60
2021/10/06 05:05:44;;;;;;;2.28;1.00;;;14.40;84.90;;;;;;5014508;28;20438;-61
2021/10/06 05:08:10;;;;;;;2.50;1.15;;;14.50;85.00;;;;;;5016397;28;20469;-60
2021/10/06 05:10:35;;;;;;;1.95;0.80;;;14.40;85.00;;;;;;5015153;28;20056;-60
2021/10/06 05:13:01;;;;;;;1.52;0.75;;;14.40;85.10;;;;;;5012361;28;20120;-60
2021/10/06 05:15:26;;;;;;;1.73;0.60;;;14.30;85.10;;;;;;5013861;28;20037;-60
2021/10/06 05:17:52;;;;;;;1.23;0.68;;;14.40;85.30;;;;;;5013494;28;20478;-60
2021/10/06 05:20:18;;;;;;;3.05;0.70;;;14.30;85.10;;;;;;5014226;28;20076;-60
2021/10/06 05:22:43;;;;;;;2.35;0.70;;;14.40;85.10;;;;;;5014446;28;20127;-60
2021/10/06 05:25:09;;;;;;;1.42;0.70;;;14.40;85.10;;;;;;5013793;28;20371;-60
2021/10/06 05:27:35;;;;;;;1.17;0.73;;;14.30;85.00;;;;;;4998038;28;20037;-60
2021/10/06 05:30:03;;;;;;;2.25;0.75;;;14.30;85.00;;;;;;5011620;28;20111;-60
2021/10/06 05:32:28;;;;;;;2.38;0.80;;;14.30;84.90;;;;;;5016585;28;20028;-60
2021/10/06 05:34:54;;;;;;;1.10;0.60;;;14.30;84.80;;;;;;5019659;28;20034;-60
2021/10/06 05:37:19;;;;;;;2.97;0.80;;;14.30;84.90;;;;;;5018357;28;20048;-60
2021/10/06 05:39:45;;;;;;;1.13;0.57;;;14.30;84.90;;;;;;5020494;28;20022;-60
2021/10/06 05:42:10;;;;;;;2.40;0.80;;;14.30;85.00;;;;;;5024592;28;20017;-60
2021/10/06 05:44:36;;;;;;;1.48;0.65;;;14.30;85.00;;;;;;5023021;28;20048;-60
2021/10/06 05:47:01;;;;;;;1.48;0.75;;;14.30;85.10;;;;;;5024202;28;20041;-60
2021/10/06 05:49:27;;;;;;;1.75;0.60;;;14.20;85.00;;;;;;5025703;28;20040;-61
2021/10/06 05:51:52;;;;;;;5.10;1.00;;;14.20;85.00;;;;;;5022127;28;20033;-60
2021/10/06 05:54:18;;;;;;;1.98;0.70;;;14.20;84.90;;;;;;5021442;28;20036;-58
2021/10/06 05:56:43;;;;;;;1.73;0.57;;;14.20;85.00;;;;;;5023736;28;20379;-60
2021/10/06 05:59:09;;;;;;;2.17;0.70;;;14.20;85.00;;;;;;5022467;28;20060;-60
2021/10/06 06:01:34;;;;;;;1.90;0.50;;;14.20;85.10;;;;;;5006435;28;20041;-60
2021/10/06 06:04:00;;;;;;;1.83;0.75;;;14.20;85.10;;;;;;4998805;28;20133;-60
2021/10/06 06:06:25;;;;;;;1.90;0.50;;;14.20;85.10;;;;;;4998475;28;20103;-63
2021/10/06 06:08:51;;;;;;;2.42;1.25;;;14.20;85.10;;;;;;5017727;28;20029;-60
2021/10/06 06:11:16;;;;;;;3.08;0.90;;;14.10;84.90;;;;;;5018795;28;20064;-61
2021/10/06 06:13:42;;;;;;;2.95;0.60;;;14.20;85.00;;;;;;5019261;28;20753;-60
2021/10/06 06:16:08;;;;;;;2.35;0.70;;;14.20;84.90;;;;;;5003401;28;20033;-63
2021/10/06 06:18:33;;;;;;;2.65;0.60;;;14.10;84.80;;;;;;5001922;28;20050;-59
2021/10/06 06:20:59;;;;;;;7.18;0.73;;;14.20;84.80;;;;;;5016372;28;20503;-61
2021/10/06 06:23:26;;;;;;;5.97;0.80;;;14.20;84.80;;;;;;5016417;28;20400;-60
2021/10/06 06:25:51;;;;;;;3.35;0.77;;;14.10;84.80;;;;;;5019292;28;20049;-60
2021/10/06 06:28:17;;;;;;;6.50;0.90;;;14.10;84.80;;;;;;5007918;28;20033;-60
2021/10/06 06:30:42;;;;;;;12.40;1.25;;;14.10;84.70;;;;;;5025654;28;20422;-60
2021/10/06 06:33:08;;;;;;;8.45;1.50;;;14.10;84.70;;;;;;4990002;28;20060;-60
2021/10/06 06:35:33;;;;;;;12.50;1.70;;;14.10;84.70;;;;;;5023608;28;20584;-60
2021/10/06 06:37:59;;;;;;;5.40;1.27;;;14.10;84.70;;;;;;5017787;28;20061;-60
2021/10/06 06:40:25;;;;;;;11.02;1.50;;;14.10;84.60;;;;;;5023440;28;20073;-61
2021/10/06 06:42:50;;;;;;;39.30;5.45;;;14.10;84.80;;;;;;5024969;28;20405;-60
2021/10/06 06:45:16;;;;;;;34.30;2.95;;;14.10;84.70;;;;;;5023356;28;20370;-60
2021/10/06 06:47:41;;;;;;;25.20;3.17;;;14.10;84.60;;;;;;5022265;28;20381;-60
2021/10/06 06:50:08;;;;;;;25.70;3.17;;;14.10;84.90;;;;;;5020563;28;20385;-60
2021/10/06 06:52:33;;;;;;;14.80;2.58;;;14.10;84.90;;;;;;5017586;28;20036;-60
2021/10/06 06:54:59;;;;;;;15.75;2.15;;;14.10;84.70;;;;;;5022721;28;20037;-60
2021/10/06 06:57:25;;;;;;;23.02;3.10;;;14.10;84.90;;;;;;5003994;28;20037;-60
2021/10/06 06:59:51;;;;;;;35.22;3.53;;;14.20;84.80;;;;;;5021156;28;20044;-60
2021/10/06 07:02:16;;;;;;;35.20;2.72;;;14.10;84.70;;;;;;5019513;28;20069;-60
2021/10/06 07:04:42;;;;;;;20.17;3.13;;;14.20;84.90;;;;;;5019817;28;20029;-60
2021/10/06 07:07:11;;;;;;;27.38;2.80;;;14.10;84.80;;;;;;5018621;28;20037;-60
2021/10/06 07:09:36;;;;;;;31.17;3.58;;;14.10;84.60;;;;;;5024064;28;20053;-60
2021/10/06 07:12:02;;;;;;;25.23;3.72;;;14.10;84.40;;;;;;5021931;28;20130;-60
2021/10/06 07:14:28;;;;;;;13.10;2.42;;;14.10;84.10;;;;;;5003552;28;20795;-60
2021/10/06 07:16:53;;;;;;;14.88;2.13;;;14.10;84.10;;;;;;5021668;28;20025;-59
2021/10/06 07:19:19;;;;;;;11.60;2.13;;;14.10;84.00;;;;;;5020879;28;20053;-61
2021/10/06 07:21:44;;;;;;;18.55;2.60;;;14.00;83.90;;;;;;5020443;28;20033;-60
2021/10/06 07:24:14;;;;;;;14.57;2.47;;;14.00;83.90;;;;;;5018426;28;20401;-60
2021/10/06 07:26:39;;;;;;;40.30;4.22;;;14.00;84.00;;;;;;4987296;28;20053;-60
2021/10/06 07:29:05;;;;;;;17.27;2.60;;;14.00;84.00;;;;;;5020267;28;20053;-60
2021/10/06 07:31:30;;;;;;;24.45;2.95;;;13.90;84.10;;;;;;5018697;28;20131;-60
2021/10/06 07:33:57;;;;;;;27.50;2.58;;;13.90;84.10;;;;;;5002275;28;20484;-60
2021/10/06 07:36:24;;;;;;;34.40;3.15;;;13.90;84.20;;;;;;5019293;28;20021;-60
2021/10/06 07:38:51;;;;;;;26.90;3.13;;;13.90;84.20;;;;;;5016081;28;20120;-60
2021/10/06 07:41:16;;;;;;;24.42;2.50;;;14.00;84.20;;;;;;5016851;28;20049;-60
2021/10/06 07:43:42;;;;;;;41.53;3.63;;;13.90;84.20;;;;;;5020060;28;20028;-61
2021/10/06 07:46:07;;;;;;;22.45;3.15;;;13.90;84.30;;;;;;5021217;28;20474;-61
2021/10/06 07:48:33;;;;;;;25.30;3.10;;;13.90;84.30;;;;;;5019038;28;20429;-60
2021/10/06 07:50:59;;;;;;;24.33;3.45;;;13.90;84.40;;;;;;5018371;28;20025;-60
2021/10/06 07:53:25;;;;;;;24.15;2.78;;;13.90;84.40;;;;;;5015037;28;20064;-61
2021/10/06 07:55:50;;;;;;;23.88;2.20;;;13.90;84.40;;;;;;5015077;28;20101;-60
2021/10/06 07:58:16;;;;;;;12.90;1.83;;;13.90;84.60;;;;;;5017119;28;20037;-60
2021/10/06 08:00:41;;;;;;;15.50;2.03;;;13.90;84.60;;;;;;5019136;28;20034;-60
2021/10/06 08:03:07;;;;;;;25.35;4.22;;;13.90;84.50;;;;;;5009775;28;20064;-60
2021/10/06 08:05:33;;;;;;;22.45;2.78;;;13.90;84.70;;;;;;4996381;28;20531;-60
2021/10/06 08:07:58;;;;;;;21.83;2.08;;;13.90;84.60;;;;;;5014408;28;20501;-60
2021/10/06 08:10:24;;;;;;;21.83;2.17;;;13.90;84.50;;;;;;5017830;28;20397;-60
2021/10/06 08:12:49;;;;;;;19.08;2.00;;;13.90;84.70;;;;;;5011294;28;20037;-60
2021/10/06 08:15:15;;;;;;;19.25;3.00;;;13.90;84.70;;;;;;5017918;28;20034;-60
2021/10/06 08:17:40;;;;;;;24.70;3.50;;;14.00;85.00;;;;;;5017915;28;20030;-61
2021/10/06 08:20:06;;;;;;;15.90;2.80;;;14.00;85.10;;;;;;5005885;28;20481;-60
2021/10/06 08:22:32;;;;;;;32.40;3.45;;;13.90;85.00;;;;;;5010070;28;20025;-60
2021/10/06 08:24:57;;;;;;;12.73;2.75;;;13.90;84.90;;;;;;4999439;28;20057;-60
2021/10/06 08:27:23;;;;;;;30.58;2.05;;;13.90;85.00;;;;;;5016370;28;20103;-60
2021/10/06 08:29:48;;;;;;;20.35;3.28;;;14.00;85.10;;;;;;5013419;28;20361;-60
2021/10/06 08:32:14;;;;;;;19.30;3.25;;;14.00;84.90;;;;;;5014994;28;20138;-60
2021/10/06 08:34:39;;;;;;;15.25;2.22;;;14.00;84.90;;;;;;5014248;28;20527;-60
2021/10/06 08:37:05;;;;;;;15.50;2.72;;;14.00;85.00;;;;;;5015525;28;20556;-60
2021/10/06 08:39:30;;;;;;;24.35;3.42;;;14.00;85.00;;;;;;5012495;28;20188;-60
2021/10/06 08:41:56;;;;;;;24.02;2.85;;;14.00;85.20;;;;;;5015167;28;20409;-60
2021/10/06 08:44:22;;;;;;;11.90;2.17;;;14.00;85.30;;;;;;5009295;28;20284;-60
2021/10/06 08:46:48;;;;;;;27.13;3.83;;;14.00;85.30;;;;;;5008335;28;20092;-60
2021/10/06 08:49:13;;;;;;;23.52;3.22;;;14.00;85.20;;;;;;4996625;28;20066;-60
2021/10/06 08:51:39;;;;;;;28.92;3.55;;;14.10;85.30;;;;;;4981111;28;20076;-60
2021/10/06 08:54:06;;;;;;;41.78;4.32;;;14.00;85.00;;;;;;5013168;28;20132;-60
2021/10/06 08:56:31;;;;;;;61.75;5.10;;;14.10;85.20;;;;;;5014914;28;20021;-60
2021/10/06 08:58:57;;;;;;;35.03;3.78;;;14.20;85.20;;;;;;5013790;28;20060;-60
2021/10/06 09:01:27;;;;;;;28.55;3.58;;;14.10;85.20;;;;;;5015461;28;20079;-61
2021/10/06 09:03:57;;;;;;;18.17;2.45;;;14.10;85.20;;;;;;5011802;28;20033;-60
2021/10/06 09:06:30;;;;;;;18.98;2.88;;;14.20;85.20;;;;;;4999599;28;20201;-60
2021/10/06 09:08:55;;;;;;;32.63;3.40;;;14.20;85.40;;;;;;5018041;28;20031;-60
2021/10/06 09:11:21;;;;;;;20.63;2.42;;;14.20;84.90;;;;;;5020880;28;20033;-60
2021/10/06 09:13:46;;;;;;;16.02;2.17;;;14.20;84.80;;;;;;5020016;28;20038;-61
2021/10/06 09:16:15;;;;;;;17.20;2.65;;;14.40;84.70;;;;;;5015607;28;20037;-60
2021/10/06 09:18:41;;;;;;;20.70;2.00;;;14.20;84.50;;;;;;5020773;28;20056;-60
2021/10/06 09:21:08;;;;;;;12.52;2.53;;;14.20;84.60;;;;;;5017064;28;20104;-60
2021/10/06 09:23:38;;;;;;;63.28;5.25;;;14.20;84.60;;;;;;4994835;28;20057;-60
2021/10/06 09:26:06;;;;;;;18.42;2.25;;;14.20;84.60;;;;;;5017946;28;20111;-60
2021/10/06 09:28:32;;;;;;;38.10;4.68;;;14.20;84.60;;;;;;5015991;28;20016;-60
2021/10/06 09:31:02;;;;;;;33.33;4.63;;;14.20;84.70;;;;;;5021681;28;20100;-59
2021/10/06 09:33:49;;;;;;;35.58;5.00;;;14.20;85.00;;;;;;5020238;28;20037;-61
2021/10/06 09:36:18;;;;;;;43.40;4.20;;;14.30;85.00;;;;;;5023082;28;20641;-60
2021/10/06 09:38:49;;;;;;;32.83;3.50;;;14.30;85.10;;;;;;5019397;28;20160;-60
2021/10/06 09:41:32;;;;;;;40.40;5.03;;;14.30;85.10;;;;;;5021380;28;20038;-60
2021/10/06 09:44:07;;;;;;;40.70;5.18;;;14.30;85.20;;;;;;5018617;28;20097;-60
2021/10/06 09:46:45;;;;;;;31.13;4.18;;;14.30;85.30;;;;;;5020657;28;20143;-60
2021/10/06 09:49:28;;;;;;;49.22;5.22;;;14.30;85.30;;;;;;5018831;28;20018;-60
2021/10/06 09:51:55;;;;;;;34.50;4.93;;;14.30;85.60;;;;;;5017706;28;20062;-59
2021/10/06 09:54:21;;;;;;;42.13;4.10;;;14.30;86.00;;;;;;5018958;28;20040;-59
2021/10/06 09:56:48;;;;;;;44.78;5.45;;;14.30;86.00;;;;;;5021241;28;20045;-60
2021/10/06 09:59:14;;;;;;;36.25;4.72;;;14.30;86.40;;;;;;5022539;28;20557;-60
2021/10/06 10:01:41;;;;;;;38.50;4.13;;;14.30;86.30;;;;;;5017832;28;20037;-60
2021/10/06 10:04:07;;;;;;;36.08;3.90;;;14.40;86.30;;;;;;5017262;28;20028;-59
2021/10/06 10:06:32;;;;;;;35.67;4.35;;;14.40;86.20;;;;;;5001948;28;20503;-60
2021/10/06 10:09:00;;;;;;;34.47;4.88;;;14.30;86.10;;;;;;5001760;28;20029;-60
2021/10/06 10:11:26;;;;;;;32.33;4.90;;;14.40;86.40;;;;;;5005385;28;20078;-60
2021/10/06 10:13:51;;;;;;;46.08;5.43;;;14.40;86.40;;;;;;5015101;28;20029;-60
2021/10/06 10:16:17;;;;;;;35.15;4.25;;;14.40;86.50;;;;;;5016969;28;20056;-60
2021/10/06 10:18:43;;;;;;;42.88;5.38;;;14.40;86.70;;;;;;5009297;28;20133;-60
2021/10/06 10:21:11;;;;;;;33.38;5.00;;;14.40;86.60;;;;;;4996807;28;20100;-60
2021/10/06 10:23:36;;;;;;;53.53;5.95;;;14.40;86.70;;;;;;4995151;28;20633;-59
2021/10/06 10:26:02;;;;;;;40.67;4.43;;;14.40;86.70;;;;;;5009184;28;20053;-59
2021/10/06 10:28:40;;;;;;;28.48;5.18;;;14.40;86.80;;;;;;5010337;28;20342;-60
2021/10/06 10:31:06;;;;;;;40.85;5.90;;;14.40;86.80;;;;;;4996132;28;20049;-59
2021/10/06 10:33:37;;;;;;;36.40;6.57;;;14.50;86.90;;;;;;5019035;28;20071;-61
2021/10/06 10:36:03;;;;;;;56.63;5.78;;;14.50;86.90;;;;;;5014251;28;20036;-59
2021/10/06 10:38:38;;;;;;;59.72;6.40;;;14.50;87.40;;;;;;5008088;28;20072;-60
2021/10/06 10:41:03;;;;;;;57.90;5.63;;;14.60;87.40;;;;;;5011905;28;20052;-60
2021/10/06 10:43:32;;;;;;;37.15;4.88;;;14.50;86.80;;;;;;5017366;28;20041;-60
2021/10/06 10:46:07;;;;;;;48.58;6.18;;;14.60;86.80;;;;;;5010953;28;20033;-60
2021/10/06 10:48:32;;;;;;;72.75;7.22;;;14.60;86.60;;;;;;5014519;28;20033;-60
2021/10/06 10:50:58;;;;;;;60.35;6.47;;;14.70;86.40;;;;;;5014979;28;20115;-60
2021/10/06 10:53:45;;;;;;;55.70;6.35;;;14.70;86.30;;;;;;5015987;28;20037;-60
2021/10/06 10:56:11;;;;;;;47.05;4.95;;;14.80;86.20;;;;;;5009830;28;20549;-61
2021/10/06 10:58:38;;;;;;;47.03;5.75;;;14.70;85.90;;;;;;4994182;28;20037;-60
2021/10/06 11:01:05;;;;;;;55.50;5.50;;;14.80;85.90;;;;;;5006090;28;20615;-60
2021/10/06 11:03:31;;;;;;;31.42;3.80;;;14.80;85.60;;;;;;5008673;28;20568;-60
2021/10/06 11:05:57;;;;;;;43.33;5.50;;;14.80;85.20;;;;;;5014312;28;20108;-60
2021/10/06 11:08:27;;;;;;;45.95;5.10;;;14.80;85.10;;;;;;4996724;28;20033;-60
2021/10/06 11:11:11;;;;;;;36.50;4.25;;;14.90;85.00;;;;;;4979361;28;20037;-60
2021/10/06 11:13:38;;;;;;;31.48;4.30;;;14.90;84.80;;;;;;5015677;28;20354;-61
2021/10/06 11:16:04;;;;;;;35.17;4.35;;;14.90;84.70;;;;;;4991472;28;20045;-60
2021/10/06 11:18:51;;;;;;;30.85;4.47;;;14.90;84.60;;;;;;5009344;28;20352;-60
2021/10/06 11:21:31;;;;;;;39.10;4.60;;;14.90;84.40;;;;;;5001007;28;20036;-60
2021/10/06 11:23:57;;;;;;;26.25;3.63;;;14.90;84.00;;;;;;4995758;28;20029;-60
2021/10/06 11:26:26;;;;;;;33.33;3.85;;;14.90;83.90;;;;;;5011816;28;20146;-60
2021/10/06 11:28:52;;;;;;;42.90;4.20;;;15.00;83.80;;;;;;4995250;28;21446;-59
2021/10/06 11:31:21;;;;;;;41.33;4.30;;;14.90;83.60;;;;;;5013758;28;20124;-59
2021/10/06 11:33:47;;;;;;;47.50;5.88;;;15.00;83.70;;;;;;4975587;28;20037;-59
2021/10/06 11:36:18;;;;;;;37.00;4.20;;;15.00;84.10;;;;;;4978916;28;20149;-61
2021/10/06 11:38:50;;;;;;;43.53;5.20;;;15.00;84.10;;;;;;4994279;28;20109;-60
2021/10/06 11:41:15;;;;;;;28.50;3.53;;;15.00;84.20;;;;;;5003145;28;20041;-60
2021/10/06 11:43:49;;;;;;;30.85;3.17;;;15.00;84.40;;;;;;4993039;28;20029;-60
2021/10/06 11:46:35;;;;;;;33.88;4.30;;;15.00;85.20;;;;;;4997697;28;20052;-59
2021/10/06 11:49:05;;;;;;;22.48;4.22;;;14.90;84.80;;;;;;5008383;28;20049;-60
2021/10/06 11:51:51;;;;;;;41.00;5.13;;;14.90;84.90;;;;;;5003183;28;22333;-60
2021/10/06 11:54:19;;;;;;;41.08;4.43;;;14.90;85.50;;;;;;4967298;28;20666;-60
2021/10/06 11:56:50;;;;;;;25.67;3.95;;;14.90;85.90;;;;;;4971958;28;20124;-61
2021/10/06 11:59:20;;;;;;;34.50;4.57;;;15.00;85.80;;;;;;4970378;28;20769;-60
2021/10/06 12:02:08;;;;;;;29.80;3.22;;;15.00;85.60;;;;;;4998587;28;20500;-60
2021/10/06 12:04:36;;;;;;;32.03;4.35;;;15.00;85.90;;;;;;4984816;28;21543;-60
2021/10/06 12:07:03;;;;;;;32.28;4.40;;;15.00;86.00;;;;;;4989044;28;21051;-59
2021/10/06 12:09:39;;;;;;;21.38;3.67;;;15.00;85.20;;;;;;4990531;28;20043;-60
2021/10/06 12:12:11;;;;;;;;;;;15.00;85.10;;;;;;5011260;28;20132;-60
2021/10/06 12:14:43;;;;;;;35.75;4.32;;;15.10;85.30;;;;;;5012731;28;20423;-60
2021/10/06 12:17:11;;;;;;;36.25;4.72;;;15.00;85.00;;;;;;5006433;28;20041;-60
2021/10/06 12:19:38;;;;;;;35.70;4.38;;;15.10;85.00;;;;;;5008607;28;20108;-60
2021/10/06 12:22:04;;;;;;;30.35;4.05;;;15.10;85.00;;;;;;5010288;28;20567;-60
2021/10/06 12:24:30;;;;;;;31.67;3.97;;;15.10;84.80;;;;;;5007019;28;20036;-60
2021/10/06 12:26:56;;;;;;;104.10;10.02;;;15.10;84.80;;;;;;4993143;28;20413;-60
2021/10/06 12:29:26;;;;;;;69.75;7.35;;;15.30;84.70;;;;;;5011409;28;20394;-60
2021/10/06 12:31:55;;;;;;;69.22;6.72;;;15.10;84.70;;;;;;4974456;28;20106;-60
2021/10/06 12:34:22;;;;;;;62.13;5.88;;;15.20;84.70;;;;;;5005917;28;20060;-60
2021/10/06 12:36:52;;;;;;;70.10;6.93;;;15.10;84.50;;;;;;5008778;28;20052;-61
2021/10/06 12:39:19;;;;;;;43.47;5.15;;;15.20;84.70;;;;;;5008778;28;20613;-60